Hurley, Missouri
Current Conditions -  °F | °C
As of 1:15 PM on Thursday 30 Oct 2014 (Local Time) from KFWB Reporting Station
Few Clouds Few Clouds  
Wind Chill: 63°   Ceiling: Unl
Heat Index: 63°   Visibility: 10mi
Dew Point: 48°   Wind: 5mph
Humidity: 59%   Direction: 170°S
Pressure: 30.05"   Gusts: NA
Location:  36.93°N, 93.5°W
Report Text: KFWB 301815Z AUTO 17004KT 10SM FEW080 17/09 A3005 RMK AO2
Loading
Personal Weather Stations






























Interactive Weather Map
Tropical Storm Tracking
New forecast layout! Learn more

10-Day Weather Forecast

Advertisements
Track Severe Weather on mobile